createdAt,value
2019-04-30T00:00:55.380Z,1020.02
2019-04-30T00:01:58.433Z,1020.03
2019-04-30T00:02:55.161Z,1020.07
2019-04-30T00:03:55.875Z,1020.04
2019-04-30T00:04:55.286Z,1020.05
2019-04-30T00:05:57.377Z,1020.03
2019-04-30T00:06:55.612Z,1020.01
2019-04-30T00:07:57.551Z,1020.04
2019-04-30T00:08:55.434Z,1020.03
2019-04-30T00:09:57.517Z,1020.06
2019-04-30T00:10:55.541Z,1020.06
2019-04-30T00:11:57.892Z,1020.06
2019-04-30T00:12:55.421Z,1020.08
2019-04-30T00:13:58.564Z,1020.08
2019-04-30T00:14:55.019Z,1020.04
2019-04-30T00:16:00.289Z,1020.04
2019-04-30T00:16:55.080Z,1020.02
2019-04-30T00:18:00.283Z,1020.06
2019-04-30T00:18:58.213Z,1020.05
2019-04-30T00:19:58.215Z,1020.03
2019-04-30T00:20:55.324Z,1020.02
2019-04-30T00:21:59.070Z,1020.04
2019-04-30T00:22:55.302Z,1020.06
2019-04-30T00:23:56.146Z,1020.05
2019-04-30T00:24:55.627Z,1020.03
2019-04-30T00:25:58.292Z,1020.03
2019-04-30T00:26:55.157Z,1020.06
2019-04-30T00:27:55.934Z,1020.04
2019-04-30T00:28:55.316Z,1020.00
2019-04-30T00:29:55.762Z,1020.05
2019-04-30T00:30:56.193Z,1020.03
2019-04-30T00:31:59.271Z,1020.03
2019-04-30T00:32:55.718Z,1020.02
2019-04-30T00:33:59.881Z,1019.99
2019-04-30T00:34:55.599Z,1019.98
2019-04-30T00:35:56.467Z,1020.00
2019-04-30T00:36:55.861Z,1019.98
2019-04-30T00:37:57.638Z,1020.00
2019-04-30T00:38:54.809Z,1019.98
2019-04-30T00:39:55.551Z,1020.03
2019-04-30T00:40:55.744Z,1020.00
2019-04-30T00:41:54.651Z,1020.01
2019-04-30T00:43:00.066Z,1020.01
2019-04-30T00:43:55.163Z,1020.01
2019-04-30T00:44:55.349Z,1019.99
2019-04-30T00:45:55.171Z,1019.98
2019-04-30T00:46:55.914Z,1019.97
2019-04-30T00:47:53.907Z,1019.97
2019-04-30T00:48:55.548Z,1019.93
2019-04-30T00:49:57.550Z,1019.94
2019-04-30T00:50:55.646Z,1019.96
2019-04-30T00:51:56.711Z,1019.93
2019-04-30T00:52:55.506Z,1019.93
2019-04-30T00:53:55.653Z,1019.93
2019-04-30T00:54:55.311Z,1019.90
2019-04-30T00:55:55.616Z,1019.93
2019-04-30T00:56:57.515Z,1019.91
2019-04-30T00:57:53.654Z,1019.89
2019-04-30T00:58:55.437Z,1019.94
2019-04-30T00:59:54.892Z,1019.85
2019-04-30T01:00:55.418Z,1019.90
2019-04-30T01:01:53.606Z,1019.88
2019-04-30T01:02:55.489Z,1019.85
2019-04-30T01:03:55.870Z,1019.88
2019-04-30T01:04:53.531Z,1019.87
2019-04-30T01:05:55.155Z,1019.91
2019-04-30T01:06:53.513Z,1019.86
2019-04-30T01:07:54.995Z,1019.89
2019-04-30T01:08:53.462Z,1019.86
2019-04-30T01:09:55.223Z,1019.87
2019-04-30T01:10:53.425Z,1019.87
2019-04-30T01:11:55.217Z,1019.85
2019-04-30T01:12:53.392Z,1019.84
2019-04-30T01:13:53.975Z,1019.82
2019-04-30T01:14:53.365Z,1019.82
2019-04-30T01:15:53.366Z,1019.77
2019-04-30T01:16:53.322Z,1019.81
2019-04-30T01:17:53.989Z,1019.79
2019-04-30T01:18:53.302Z,1019.76
2019-04-30T01:19:54.608Z,1019.74
2019-04-30T01:20:53.241Z,1019.76
2019-04-30T01:21:53.288Z,1019.73
2019-04-30T01:22:53.253Z,1019.72
2019-04-30T01:23:54.782Z,1019.74
2019-04-30T01:24:53.191Z,1019.73
2019-04-30T01:25:53.163Z,1019.73
2019-04-30T01:26:53.145Z,1019.72
2019-04-30T01:27:53.119Z,1019.72
2019-04-30T01:28:53.706Z,1019.70
2019-04-30T01:29:53.100Z,1019.70
2019-04-30T01:30:53.961Z,1019.67
2019-04-30T01:31:53.053Z,1019.68
2019-04-30T01:32:56.645Z,1019.68
2019-04-30T01:33:53.016Z,1019.68
2019-04-30T01:34:54.056Z,1019.66
2019-04-30T01:35:53.156Z,1019.66
2019-04-30T01:36:52.959Z,1019.67
2019-04-30T01:37:52.946Z,1019.65
2019-04-30T01:38:52.941Z,1019.65
2019-04-30T01:39:53.042Z,1019.62
2019-04-30T01:40:52.930Z,1019.65
2019-04-30T01:41:52.873Z,1019.63
2019-04-30T01:42:52.858Z,1019.62
2019-04-30T01:43:52.842Z,1019.66
2019-04-30T01:44:53.931Z,1019.67
2019-04-30T01:45:52.796Z,1019.65
2019-04-30T01:46:52.803Z,1019.61
2019-04-30T01:47:52.764Z,1019.66
2019-04-30T01:48:52.746Z,1019.66
2019-04-30T01:49:55.899Z,1019.63
2019-04-30T01:50:52.709Z,1019.63
2019-04-30T01:51:52.830Z,1019.64
2019-04-30T01:52:52.709Z,1019.65
2019-04-30T01:53:52.655Z,1019.63
2019-04-30T01:54:52.639Z,1019.63
2019-04-30T01:55:52.620Z,1019.65
2019-04-30T01:56:52.602Z,1019.66
2019-04-30T01:57:54.327Z,1019.66
2019-04-30T01:58:52.607Z,1019.65
2019-04-30T01:59:52.557Z,1019.63
2019-04-30T02:00:52.536Z,1019.65
2019-04-30T02:01:52.517Z,1019.67
2019-04-30T02:02:53.362Z,1019.62
2019-04-30T02:03:52.482Z,1019.64
2019-04-30T02:04:52.479Z,1019.65
2019-04-30T02:05:52.554Z,1019.64
2019-04-30T02:06:52.431Z,1019.64
2019-04-30T02:07:53.334Z,1019.63
2019-04-30T02:08:52.392Z,1019.64
2019-04-30T02:09:52.371Z,1019.63
2019-04-30T02:10:52.370Z,1019.62
2019-04-30T02:11:52.344Z,1019.64
2019-04-30T02:12:52.323Z,1019.59
2019-04-30T02:13:52.305Z,1019.62
2019-04-30T02:14:52.283Z,1019.59
2019-04-30T02:15:52.262Z,1019.62
2019-04-30T02:16:52.269Z,1019.61
2019-04-30T02:17:52.229Z,1019.61
2019-04-30T02:18:52.208Z,1019.63
2019-04-30T02:19:56.665Z,1019.62
2019-04-30T02:20:52.176Z,1019.59
2019-04-30T02:21:52.158Z,1019.62
2019-04-30T02:22:52.174Z,1019.61
2019-04-30T02:23:52.123Z,1019.63
2019-04-30T02:24:52.105Z,1019.63
2019-04-30T02:25:52.095Z,1019.61
2019-04-30T02:26:52.079Z,1019.64
2019-04-30T02:27:52.049Z,1019.64
2019-04-30T02:28:52.053Z,1019.64
2019-04-30T02:29:52.022Z,1019.66
2019-04-30T02:30:52.008Z,1019.64
2019-04-30T02:31:51.978Z,1019.67
2019-04-30T02:32:52.588Z,1019.67
2019-04-30T02:33:51.938Z,1019.66
2019-04-30T02:34:51.962Z,1019.65
2019-04-30T02:35:51.925Z,1019.71
2019-04-30T02:36:51.887Z,1019.67
2019-04-30T02:37:51.882Z,1019.68
2019-04-30T02:38:51.871Z,1019.69
2019-04-30T02:39:51.837Z,1019.68
2019-04-30T02:40:51.839Z,1019.68
2019-04-30T02:41:51.795Z,1019.70
2019-04-30T02:42:51.788Z,1019.71
2019-04-30T02:43:51.781Z,1019.72
2019-04-30T02:44:51.763Z,1019.73
2019-04-30T02:45:51.733Z,1019.70
2019-04-30T02:46:51.713Z,1019.76
2019-04-30T02:47:51.692Z,1019.70
2019-04-30T02:48:51.693Z,1019.72
2019-04-30T02:49:53.362Z,1019.71
2019-04-30T02:50:51.643Z,1019.70
2019-04-30T02:51:51.617Z,1019.72
2019-04-30T02:52:51.603Z,1019.72
2019-04-30T02:53:51.597Z,1019.73
2019-04-30T02:54:51.566Z,1019.70
2019-04-30T02:55:51.552Z,1019.73
2019-04-30T02:56:51.530Z,1019.72
2019-04-30T02:57:51.516Z,1019.74
2019-04-30T02:58:51.514Z,1019.77
2019-04-30T02:59:51.498Z,1019.74
2019-04-30T03:00:52.342Z,1019.73
2019-04-30T03:01:51.442Z,1019.72
2019-04-30T03:02:51.434Z,1019.77
2019-04-30T03:03:51.404Z,1019.74
2019-04-30T03:04:51.400Z,1019.72
2019-04-30T03:05:51.368Z,1019.72
2019-04-30T03:06:51.353Z,1019.70
2019-04-30T03:07:53.422Z,1019.68
2019-04-30T03:08:51.540Z,1019.72
2019-04-30T03:09:51.317Z,1019.69
2019-04-30T03:10:52.831Z,1019.68
2019-04-30T03:11:51.266Z,1019.66
2019-04-30T03:12:51.238Z,1019.67
2019-04-30T03:13:51.225Z,1019.67
2019-04-30T03:14:51.227Z,1019.64
2019-04-30T03:15:51.194Z,1019.62
2019-04-30T03:16:53.142Z,1019.60
2019-04-30T03:17:51.171Z,1019.58
2019-04-30T03:18:51.134Z,1019.56
2019-04-30T03:19:51.127Z,1019.55
2019-04-30T03:20:51.097Z,1019.57
2019-04-30T03:21:51.078Z,1019.56
2019-04-30T03:22:51.317Z,1019.60
2019-04-30T03:23:51.069Z,1019.56
2019-04-30T03:24:51.061Z,1019.56
2019-04-30T03:25:51.036Z,1019.60
2019-04-30T03:26:50.991Z,1019.61
2019-04-30T03:27:50.974Z,1019.57
2019-04-30T03:28:50.974Z,1019.58
2019-04-30T03:29:50.947Z,1019.61
2019-04-30T03:30:56.820Z,1019.60
2019-04-30T03:31:52.475Z,1019.59
2019-04-30T03:32:56.692Z,1019.59
2019-04-30T03:33:52.238Z,1019.55
2019-04-30T03:34:51.960Z,1019.56
2019-04-30T03:35:54.309Z,1019.53
2019-04-30T03:36:50.820Z,1019.47
2019-04-30T03:37:50.791Z,1019.49
2019-04-30T03:38:50.777Z,1019.51
2019-04-30T03:39:50.754Z,1019.52
2019-04-30T03:40:50.734Z,1019.52
2019-04-30T03:41:50.747Z,1019.49
2019-04-30T03:42:50.709Z,1019.49
2019-04-30T03:43:50.685Z,1019.50
2019-04-30T03:44:50.660Z,1019.46
2019-04-30T03:45:50.645Z,1019.45
2019-04-30T03:46:50.662Z,1019.46
2019-04-30T03:47:50.697Z,1019.48
2019-04-30T03:48:50.623Z,1019.47
2019-04-30T03:49:50.590Z,1019.47
2019-04-30T03:50:56.640Z,1019.44
2019-04-30T03:51:50.544Z,1019.42
2019-04-30T03:52:50.544Z,1019.42
2019-04-30T03:53:50.495Z,1019.40
2019-04-30T03:54:50.484Z,1019.43
2019-04-30T03:55:50.739Z,1019.42
2019-04-30T03:56:50.536Z,1019.42
2019-04-30T03:57:51.874Z,1019.46
2019-04-30T03:58:50.527Z,1019.43
2019-04-30T03:59:50.426Z,1019.46
2019-04-30T04:00:50.506Z,1019.48
2019-04-30T04:01:50.358Z,1019.43
2019-04-30T04:02:50.381Z,1019.42
2019-04-30T04:03:50.321Z,1019.39
2019-04-30T04:04:52.663Z,1019.39
2019-04-30T04:05:50.287Z,1019.41
2019-04-30T04:06:50.292Z,1019.41
2019-04-30T04:07:53.064Z,1019.43
2019-04-30T04:08:50.249Z,1019.42
2019-04-30T04:09:50.232Z,1019.43
2019-04-30T04:10:53.040Z,1019.44
2019-04-30T04:11:51.023Z,1019.42
2019-04-30T04:12:50.158Z,1019.46
2019-04-30T04:13:50.135Z,1019.50
2019-04-30T04:14:50.927Z,1019.46
2019-04-30T04:15:50.118Z,1019.48
2019-04-30T04:16:50.874Z,1019.45
2019-04-30T04:17:50.540Z,1019.47
2019-04-30T04:18:50.316Z,1019.47
2019-04-30T04:19:50.859Z,1019.46
2019-04-30T04:20:52.136Z,1019.50
2019-04-30T04:21:50.912Z,1019.45
2019-04-30T04:22:50.084Z,1019.46
2019-04-30T04:23:49.960Z,1019.46
2019-04-30T04:24:50.595Z,1019.49
2019-04-30T04:25:50.112Z,1019.51
2019-04-30T04:26:50.400Z,1019.52
2019-04-30T04:27:50.919Z,1019.51
2019-04-30T04:28:49.968Z,1019.52
2019-04-30T04:29:51.050Z,1019.50
2019-04-30T04:30:50.653Z,1019.49
2019-04-30T04:31:50.416Z,1019.50
2019-04-30T04:32:50.198Z,1019.48
2019-04-30T04:33:52.765Z,1019.50
2019-04-30T04:34:50.750Z,1019.50
2019-04-30T04:35:50.073Z,1019.52
2019-04-30T04:36:50.691Z,1019.51
2019-04-30T04:37:49.905Z,1019.53
2019-04-30T04:38:50.705Z,1019.51
2019-04-30T04:39:50.516Z,1019.52
2019-04-30T04:40:50.394Z,1019.54
2019-04-30T04:41:50.455Z,1019.56
2019-04-30T04:42:49.636Z,1019.55
2019-04-30T04:43:50.379Z,1019.49
2019-04-30T04:44:50.576Z,1019.51
2019-04-30T04:45:50.071Z,1019.52
2019-04-30T04:46:50.756Z,1019.55
2019-04-30T04:47:50.370Z,1019.56
2019-04-30T04:48:49.615Z,1019.55
2019-04-30T04:49:52.975Z,1019.57
2019-04-30T04:50:50.174Z,1019.59
2019-04-30T04:51:49.451Z,1019.58
2019-04-30T04:52:49.757Z,1019.59
2019-04-30T04:53:50.097Z,1019.57
2019-04-30T04:54:50.674Z,1019.59
2019-04-30T04:55:49.861Z,1019.57
2019-04-30T04:56:52.941Z,1019.60
2019-04-30T04:57:50.006Z,1019.61
2019-04-30T04:58:50.171Z,1019.59
2019-04-30T04:59:49.985Z,1019.57
2019-04-30T05:00:49.637Z,1019.57
2019-04-30T05:01:49.269Z,1019.59
2019-04-30T05:02:49.880Z,1019.59
2019-04-30T05:03:49.235Z,1019.56
2019-04-30T05:04:49.276Z,1019.58
2019-04-30T05:05:49.918Z,1019.55
2019-04-30T05:06:49.783Z,1019.56
2019-04-30T05:07:49.173Z,1019.53
2019-04-30T05:08:49.370Z,1019.57
2019-04-30T05:09:49.120Z,1019.54
2019-04-30T05:10:49.487Z,1019.56
2019-04-30T05:11:49.089Z,1019.58
2019-04-30T05:12:50.936Z,1019.54
2019-04-30T05:13:49.158Z,1019.52
2019-04-30T05:14:49.051Z,1019.54
2019-04-30T05:15:51.534Z,1019.57
2019-04-30T05:16:49.015Z,1019.55
2019-04-30T05:17:49.420Z,1019.59
2019-04-30T05:18:48.958Z,1019.61
2019-04-30T05:19:48.960Z,1019.60
2019-04-30T05:20:49.115Z,1019.56
2019-04-30T05:21:51.490Z,1019.58
2019-04-30T05:22:49.013Z,1019.59
2019-04-30T05:23:49.247Z,1019.59
2019-04-30T05:24:48.934Z,1019.58
2019-04-30T05:25:49.237Z,1019.55
2019-04-30T05:26:48.945Z,1019.57
2019-04-30T05:27:48.963Z,1019.53
2019-04-30T05:28:51.110Z,1019.58
2019-04-30T05:29:49.834Z,1019.59
2019-04-30T05:30:49.399Z,1019.63
2019-04-30T05:31:48.740Z,1019.56
2019-04-30T05:32:50.364Z,1019.63
2019-04-30T05:33:48.981Z,1019.63
2019-04-30T05:34:49.659Z,1019.64
2019-04-30T05:35:49.606Z,1019.70
2019-04-30T05:36:49.015Z,1019.65
2019-04-30T05:37:49.541Z,1019.66
2019-04-30T05:38:48.826Z,1019.64
2019-04-30T05:39:48.903Z,1019.66
2019-04-30T05:40:49.514Z,1019.65
2019-04-30T05:41:49.156Z,1019.68
2019-04-30T05:42:49.621Z,1019.69
2019-04-30T05:43:49.010Z,1019.67
2019-04-30T05:44:49.691Z,1019.73
2019-04-30T05:45:49.232Z,1019.76
2019-04-30T05:46:49.418Z,1019.76
2019-04-30T05:47:50.218Z,1019.72
2019-04-30T05:48:49.501Z,1019.77
2019-04-30T05:49:48.902Z,1019.74
2019-04-30T05:50:49.373Z,1019.75
2019-04-30T05:51:55.486Z,1019.77
2019-04-30T05:52:49.289Z,1019.77
2019-04-30T05:53:49.197Z,1019.74
2019-04-30T05:54:48.850Z,1019.76
2019-04-30T05:55:49.424Z,1019.75
2019-04-30T05:56:49.360Z,1019.72
2019-04-30T05:57:55.851Z,1019.74
2019-04-30T05:58:49.410Z,1019.70
2019-04-30T05:59:48.750Z,1019.72
2019-04-30T06:00:49.896Z,1019.73
2019-04-30T06:01:50.720Z,1019.75
2019-04-30T06:02:49.673Z,1019.78
2019-04-30T06:03:48.416Z,1019.76
2019-04-30T06:04:48.988Z,1019.81
2019-04-30T06:05:49.292Z,1019.83
2019-04-30T06:06:49.018Z,1019.80
2019-04-30T06:07:51.605Z,1019.77
2019-04-30T06:08:49.051Z,1019.84
2019-04-30T06:09:48.517Z,1019.83
2019-04-30T06:10:49.240Z,1019.84
2019-04-30T06:11:49.183Z,1019.84
2019-04-30T06:12:49.348Z,1019.86
2019-04-30T06:13:49.154Z,1019.84
2019-04-30T06:14:49.903Z,1019.86
2019-04-30T06:15:49.005Z,1019.81
2019-04-30T06:16:49.218Z,1019.86
2019-04-30T06:17:57.938Z,1019.86
2019-04-30T06:18:48.523Z,1019.88
2019-04-30T06:19:49.169Z,1019.84
2019-04-30T06:20:48.537Z,1019.90
2019-04-30T06:21:49.142Z,1019.90
2019-04-30T06:22:51.872Z,1019.91
2019-04-30T06:23:49.271Z,1019.93
2019-04-30T06:24:49.455Z,1019.92
2019-04-30T06:25:57.548Z,1019.91
2019-04-30T06:26:49.371Z,1019.92
2019-04-30T06:27:48.808Z,1019.88
2019-04-30T06:28:49.636Z,1019.91
2019-04-30T06:29:48.992Z,1019.92
2019-04-30T06:30:49.240Z,1019.92
2019-04-30T06:31:48.658Z,1019.97
2019-04-30T06:32:49.480Z,1019.96
2019-04-30T06:33:48.754Z,1019.97
2019-04-30T06:34:49.610Z,1019.98
2019-04-30T06:35:49.234Z,1019.97
2019-04-30T06:36:53.180Z,1019.99
2019-04-30T06:37:48.843Z,1019.97
2019-04-30T06:38:48.882Z,1019.97
2019-04-30T06:39:50.398Z,1020.00
2019-04-30T06:40:48.830Z,1020.00
2019-04-30T06:41:49.297Z,1020.05
2019-04-30T06:42:49.375Z,1020.03
2019-04-30T06:43:48.834Z,1020.00
2019-04-30T06:44:49.278Z,1019.99
2019-04-30T06:45:50.948Z,1020.01
2019-04-30T06:46:48.799Z,1019.98
2019-04-30T06:47:48.909Z,1020.01
2019-04-30T06:48:49.120Z,1020.01
2019-04-30T06:49:48.860Z,1019.97
2019-04-30T06:50:49.100Z,1020.04
2019-04-30T06:51:49.091Z,1020.04
2019-04-30T06:52:56.637Z,1020.08
2019-04-30T06:53:49.456Z,1020.06
2019-04-30T06:54:47.230Z,1020.09
2019-04-30T06:55:49.096Z,1020.10
2019-04-30T06:56:48.494Z,1020.08
2019-04-30T06:57:47.198Z,1020.08
2019-04-30T06:58:49.256Z,1020.08
2019-04-30T06:59:47.170Z,1020.09
2019-04-30T07:00:47.130Z,1020.11
2019-04-30T07:01:48.899Z,1020.13
2019-04-30T07:02:49.269Z,1020.14
2019-04-30T07:03:48.778Z,1020.14
2019-04-30T07:04:48.614Z,1020.13
2019-04-30T07:05:48.636Z,1020.13
2019-04-30T07:06:50.477Z,1020.15
2019-04-30T07:07:48.734Z,1020.14
2019-04-30T07:08:55.378Z,1020.16
2019-04-30T07:09:53.276Z,1020.14
2019-04-30T07:12:38.973Z,1020.14
2019-04-30T07:13:19.653Z,1020.11
2019-04-30T07:14:19.661Z,1020.13
2019-04-30T07:15:19.782Z,1020.10
2019-04-30T07:16:19.649Z,1020.11
2019-04-30T07:17:19.630Z,1020.17
2019-04-30T07:18:19.580Z,1020.16
2019-04-30T07:19:32.103Z,1020.16
2019-04-30T07:20:19.529Z,1020.19
2019-04-30T07:21:19.952Z,1020.13
2019-04-30T07:22:36.198Z,1020.16
2019-04-30T07:23:19.488Z,1020.16
2019-04-30T07:24:21.076Z,1020.15
2019-04-30T07:25:19.657Z,1020.14
2019-04-30T07:26:24.161Z,1020.17
2019-04-30T07:27:23.893Z,1020.19
2019-04-30T07:28:19.396Z,1020.20
2019-04-30T07:29:19.686Z,1020.19
2019-04-30T07:30:19.376Z,1020.20
2019-04-30T07:31:19.476Z,1020.24
2019-04-30T07:32:19.844Z,1020.20
2019-04-30T07:33:20.977Z,1020.26
2019-04-30T07:34:19.736Z,1020.27
2019-04-30T07:35:19.663Z,1020.24
2019-04-30T07:36:19.673Z,1020.23
2019-04-30T07:37:24.109Z,1020.26
2019-04-30T07:38:19.475Z,1020.31
2019-04-30T07:39:19.342Z,1020.26
2019-04-30T07:40:19.209Z,1020.28
2019-04-30T07:41:19.289Z,1020.30
2019-04-30T07:42:19.355Z,1020.25
2019-04-30T07:43:19.170Z,1020.26
2019-04-30T07:44:30.952Z,1020.27
2019-04-30T07:45:19.616Z,1020.27
2019-04-30T07:46:19.941Z,1020.26
2019-04-30T07:47:19.719Z,1020.29
2019-04-30T07:48:25.886Z,1020.29
2019-04-30T07:49:20.578Z,1020.30
2019-04-30T07:50:21.298Z,1020.35
2019-04-30T07:51:21.235Z,1020.35
2019-04-30T07:52:21.552Z,1020.36
2019-04-30T07:53:18.952Z,1020.34
2019-04-30T07:54:19.103Z,1020.36
2019-04-30T07:55:19.601Z,1020.35
2019-04-30T07:56:25.681Z,1020.36
2019-04-30T07:57:19.366Z,1020.36
2019-04-30T07:58:20.408Z,1020.39
2019-04-30T07:59:20.204Z,1020.38
2019-04-30T08:00:19.372Z,1020.37
2019-04-30T08:01:19.612Z,1020.35
2019-04-30T08:02:20.853Z,1020.31
2019-04-30T08:03:20.649Z,1020.33
2019-04-30T08:04:18.945Z,1020.33
2019-04-30T08:05:19.860Z,1020.30
2019-04-30T08:06:18.984Z,1020.31
2019-04-30T08:07:19.899Z,1020.34
2019-04-30T08:08:25.011Z,1020.36
2019-04-30T08:09:19.685Z,1020.36
2019-04-30T08:10:18.933Z,1020.34
2019-04-30T08:11:25.778Z,1020.28
2019-04-30T08:12:29.580Z,1020.28
2019-04-30T08:13:21.178Z,1020.31
2019-04-30T08:14:21.087Z,1020.28
2019-04-30T08:15:19.785Z,1020.30
2019-04-30T08:16:18.753Z,1020.30
2019-04-30T08:17:18.900Z,1020.25
2019-04-30T08:18:18.574Z,1020.26
2019-04-30T08:19:19.137Z,1020.27
2019-04-30T08:20:19.685Z,1020.26
2019-04-30T08:21:19.014Z,1020.26
2019-04-30T08:22:19.651Z,1020.24
2019-04-30T08:23:33.491Z,1020.24
2019-04-30T08:24:19.324Z,1020.22
2019-04-30T08:25:21.282Z,1020.25
2019-04-30T08:26:18.854Z,1020.23
2019-04-30T08:27:19.659Z,1020.25
2019-04-30T08:28:18.774Z,1020.25
2019-04-30T08:29:19.500Z,1020.23
2019-04-30T08:30:25.753Z,1020.26
2019-04-30T08:31:19.553Z,1020.24
2019-04-30T08:32:19.125Z,1020.26
2019-04-30T08:33:19.395Z,1020.28
2019-04-30T08:34:20.078Z,1020.32
2019-04-30T08:35:19.677Z,1020.28
2019-04-30T08:36:19.701Z,1020.30
2019-04-30T08:37:20.272Z,1020.33
2019-04-30T08:38:19.136Z,1020.30
2019-04-30T08:39:19.746Z,1020.34
2019-04-30T08:40:19.076Z,1020.36
2019-04-30T08:41:19.339Z,1020.34
2019-04-30T08:42:30.396Z,1020.33
2019-04-30T08:43:19.826Z,1020.33
2019-04-30T08:44:20.884Z,1020.34
2019-04-30T08:45:19.693Z,1020.39
2019-04-30T08:46:19.062Z,1020.35
2019-04-30T08:47:18.756Z,1020.32
2019-04-30T08:48:18.958Z,1020.36
2019-04-30T08:49:19.263Z,1020.35
2019-04-30T08:50:19.930Z,1020.37
2019-04-30T08:51:18.915Z,1020.35
2019-04-30T08:52:19.560Z,1020.35
2019-04-30T08:53:27.497Z,1020.36
2019-04-30T08:54:19.748Z,1020.41
2019-04-30T08:55:19.730Z,1020.39
2019-04-30T08:56:21.672Z,1020.42
2019-04-30T08:57:19.107Z,1020.39
2019-04-30T08:58:20.466Z,1020.39
2019-04-30T08:59:19.515Z,1020.39
2019-04-30T09:00:19.524Z,1020.34
2019-04-30T09:01:19.617Z,1020.37
2019-04-30T09:02:19.652Z,1020.38
2019-04-30T09:03:19.425Z,1020.37
2019-04-30T09:04:17.757Z,1020.40
2019-04-30T09:05:18.553Z,1020.36
2019-04-30T09:06:19.431Z,1020.37
2019-04-30T09:07:19.508Z,1020.41
2019-04-30T09:08:19.347Z,1020.39
2019-04-30T09:09:18.814Z,1020.32
2019-04-30T09:10:19.256Z,1020.37
2019-04-30T09:11:24.637Z,1020.33
2019-04-30T09:12:19.458Z,1020.27
2019-04-30T09:13:19.166Z,1020.28
2019-04-30T09:14:18.710Z,1020.30
2019-04-30T09:15:18.818Z,1020.28
2019-04-30T09:16:19.405Z,1020.29
2019-04-30T09:17:19.711Z,1020.30
2019-04-30T09:18:19.101Z,1020.30
2019-04-30T09:19:21.036Z,1020.30
2019-04-30T09:20:19.308Z,1020.31
2019-04-30T09:21:18.671Z,1020.33
2019-04-30T09:22:19.307Z,1020.30
2019-04-30T09:23:18.715Z,1020.27
2019-04-30T09:24:19.083Z,1020.26
2019-04-30T09:25:19.245Z,1020.31
2019-04-30T09:26:18.691Z,1020.34
2019-04-30T09:27:19.342Z,1020.34
2019-04-30T09:28:17.404Z,1020.39
2019-04-30T09:29:19.070Z,1020.36
2019-04-30T09:30:18.791Z,1020.24
2019-04-30T09:31:17.338Z,1020.22
2019-04-30T09:32:19.215Z,1020.27
2019-04-30T09:33:19.042Z,1020.29
2019-04-30T09:34:20.275Z,1020.26
2019-04-30T09:35:17.286Z,1020.31
2019-04-30T09:36:20.624Z,1020.25
2019-04-30T09:37:18.669Z,1020.24
2019-04-30T09:38:17.250Z,1020.29
2019-04-30T09:39:19.499Z,1020.37
2019-04-30T09:40:20.551Z,1020.34
2019-04-30T09:41:19.141Z,1020.30
2019-04-30T09:42:19.265Z,1020.29
2019-04-30T09:43:18.787Z,1020.25
2019-04-30T09:44:17.193Z,1020.30
2019-04-30T09:45:18.669Z,1020.29
2019-04-30T09:46:24.533Z,1020.25
2019-04-30T09:47:17.158Z,1020.27
2019-04-30T09:48:19.059Z,1020.27
2019-04-30T09:49:17.117Z,1020.27
2019-04-30T09:50:18.834Z,1020.26
2019-04-30T09:51:19.413Z,1020.24
2019-04-30T09:52:19.273Z,1020.31
2019-04-30T09:53:17.085Z,1020.29
2019-04-30T09:54:19.424Z,1020.25
2019-04-30T09:55:17.080Z,1020.24
2019-04-30T09:56:17.042Z,1020.22
2019-04-30T09:57:19.164Z,1020.23
2019-04-30T09:58:20.755Z,1020.19
2019-04-30T09:59:18.834Z,1020.22
2019-04-30T10:00:17.033Z,1020.18
2019-04-30T10:01:17.616Z,1020.19
2019-04-30T10:02:18.921Z,1020.17
2019-04-30T10:03:19.434Z,1020.19
2019-04-30T10:04:17.872Z,1020.23
2019-04-30T10:05:18.857Z,1020.18
2019-04-30T10:06:18.774Z,1020.22
2019-04-30T10:07:19.358Z,1020.20
2019-04-30T10:08:18.859Z,1020.19
2019-04-30T10:09:16.928Z,1020.16
2019-04-30T10:10:18.763Z,1020.17
2019-04-30T10:11:16.886Z,1020.12
2019-04-30T10:12:16.892Z,1020.11
2019-04-30T10:13:17.038Z,1020.06
2019-04-30T10:14:16.886Z,1020.11
2019-04-30T10:15:18.833Z,1020.09
2019-04-30T10:16:16.845Z,1020.06
2019-04-30T10:17:16.861Z,1020.07
2019-04-30T10:18:16.822Z,1020.07
2019-04-30T10:19:16.808Z,1020.02
2019-04-30T10:20:16.842Z,1020.03
2019-04-30T10:21:18.972Z,1019.99
2019-04-30T10:22:16.778Z,1019.99
2019-04-30T10:23:16.774Z,1019.98
2019-04-30T10:24:16.765Z,1019.99
2019-04-30T10:25:16.750Z,1019.96
2019-04-30T10:26:16.766Z,1019.98
2019-04-30T10:27:18.909Z,1019.98
2019-04-30T10:28:16.748Z,1020.03
2019-04-30T10:29:16.702Z,1020.00
2019-04-30T10:30:16.694Z,1019.99
2019-04-30T10:31:16.681Z,1019.98
2019-04-30T10:32:18.579Z,1019.95
2019-04-30T10:33:16.707Z,1019.94
2019-04-30T10:34:16.654Z,1019.94
2019-04-30T10:35:18.387Z,1019.81
2019-04-30T10:36:16.631Z,1019.86
2019-04-30T10:37:18.744Z,1019.82
2019-04-30T10:38:16.634Z,1019.85
2019-04-30T10:39:16.621Z,1019.83
2019-04-30T10:40:20.095Z,1019.81
2019-04-30T10:41:18.609Z,1019.86
2019-04-30T10:42:16.583Z,1019.88
2019-04-30T10:43:16.550Z,1019.86
2019-04-30T10:44:16.540Z,1019.84
2019-04-30T10:45:18.509Z,1019.82
2019-04-30T10:46:16.523Z,1019.81
2019-04-30T10:47:16.507Z,1019.80
2019-04-30T10:48:16.514Z,1019.77
2019-04-30T10:49:19.108Z,1019.72
2019-04-30T10:50:16.500Z,1019.70
2019-04-30T10:51:16.476Z,1019.71
2019-04-30T10:52:16.446Z,1019.69
2019-04-30T10:53:16.439Z,1019.65
2019-04-30T10:54:24.059Z,1019.67
2019-04-30T10:55:16.425Z,1019.68
2019-04-30T10:56:16.422Z,1019.69
2019-04-30T10:57:16.390Z,1019.65
2019-04-30T10:58:16.417Z,1019.71
2019-04-30T10:59:16.374Z,1019.68
2019-04-30T11:00:16.388Z,1019.68
2019-04-30T11:01:16.370Z,1019.70
2019-04-30T11:02:16.355Z,1019.64
2019-04-30T11:03:20.831Z,1019.62
2019-04-30T11:04:16.315Z,1019.60
2019-04-30T11:05:16.306Z,1019.57
2019-04-30T11:06:16.293Z,1019.67
2019-04-30T11:07:16.309Z,1019.61
2019-04-30T11:08:16.273Z,1019.67
2019-04-30T11:09:16.258Z,1019.62
2019-04-30T11:10:16.243Z,1019.61
2019-04-30T11:11:16.239Z,1019.60
2019-04-30T11:12:16.269Z,1019.54
2019-04-30T11:13:16.211Z,1019.48
2019-04-30T11:14:16.206Z,1019.52
2019-04-30T11:15:16.197Z,1019.53
2019-04-30T11:16:16.173Z,1019.49
2019-04-30T11:17:16.389Z,1019.51
2019-04-30T11:18:16.377Z,1019.52
2019-04-30T11:19:16.258Z,1019.54
2019-04-30T11:20:16.279Z,1019.53
2019-04-30T11:21:16.231Z,1019.49
2019-04-30T11:22:16.211Z,1019.50
2019-04-30T11:23:16.352Z,1019.44
2019-04-30T11:24:16.272Z,1019.40
2019-04-30T11:25:16.273Z,1019.37
2019-04-30T11:26:16.557Z,1019.42
2019-04-30T11:27:16.357Z,1019.38
2019-04-30T11:28:16.440Z,1019.38
2019-04-30T11:29:16.215Z,1019.35
2019-04-30T11:30:21.369Z,1019.37
2019-04-30T11:31:16.254Z,1019.36
2019-04-30T11:32:16.078Z,1019.37
2019-04-30T11:33:16.229Z,1019.35
2019-04-30T11:34:15.971Z,1019.34
2019-04-30T11:35:15.952Z,1019.28
2019-04-30T11:36:15.949Z,1019.35
2019-04-30T11:37:15.988Z,1019.25
2019-04-30T11:38:15.921Z,1019.30
2019-04-30T11:39:15.905Z,1019.24
2019-04-30T11:40:15.920Z,1019.21
2019-04-30T11:41:29.260Z,1019.20
2019-04-30T11:42:15.881Z,1019.22
2019-04-30T11:43:15.859Z,1019.23
2019-04-30T11:44:28.520Z,1019.23
2019-04-30T11:45:15.834Z,1019.20
2019-04-30T11:46:15.824Z,1019.18
2019-04-30T11:47:15.833Z,1019.16
2019-04-30T11:48:15.818Z,1019.13
2019-04-30T11:49:15.808Z,1019.12
2019-04-30T11:50:15.779Z,1019.12
2019-04-30T11:51:15.763Z,1019.10
2019-04-30T11:52:15.752Z,1019.07
2019-04-30T11:53:25.339Z,1019.13
2019-04-30T11:54:15.726Z,1019.10
2019-04-30T11:55:15.717Z,1019.05
2019-04-30T11:56:15.702Z,1019.03
2019-04-30T11:57:15.697Z,1019.05
2019-04-30T11:58:21.725Z,1019.02
2019-04-30T11:59:15.693Z,1019.01
2019-04-30T12:00:15.661Z,1018.99
2019-04-30T12:01:15.651Z,1018.98
2019-04-30T12:02:15.657Z,1018.97
2019-04-30T12:03:15.639Z,1018.97
2019-04-30T12:04:15.721Z,1019.03
2019-04-30T12:05:15.620Z,1018.99
2019-04-30T12:06:15.585Z,1019.02
2019-04-30T12:07:15.571Z,1018.98